createdAt,value
2018-09-02T00:01:46.175Z,91.40
2018-09-02T00:04:17.351Z,91.50
2018-09-02T00:07:51.475Z,91.90
2018-09-02T00:10:22.974Z,92.40
2018-09-02T00:12:54.686Z,92.40
2018-09-02T00:15:26.451Z,92.70
2018-09-02T00:17:58.057Z,92.60
2018-09-02T00:20:29.411Z,92.70
2018-09-02T00:23:00.755Z,92.70
2018-09-02T00:25:31.763Z,93.00
2018-09-02T00:28:03.921Z,93.00
2018-09-02T00:30:34.905Z,93.90
2018-09-02T00:33:05.977Z,93.60
2018-09-02T00:35:37.304Z,93.30
2018-09-02T00:38:08.337Z,94.20
2018-09-02T00:40:40.307Z,93.60
2018-09-02T00:43:11.694Z,93.60
2018-09-02T00:45:43.458Z,94.10
2018-09-02T00:48:14.807Z,94.80
2018-09-02T00:50:46.019Z,94.80
2018-09-02T00:53:17.190Z,94.50
2018-09-02T00:55:48.230Z,94.80
2018-09-02T00:58:19.576Z,95.20
2018-09-02T01:00:50.790Z,95.50
2018-09-02T01:03:22.091Z,95.60
2018-09-02T01:05:53.334Z,96.00
2018-09-02T01:08:25.024Z,96.10
2018-09-02T01:10:57.130Z,95.90
2018-09-02T01:13:28.103Z,95.80
2018-09-02T01:15:59.654Z,96.20
2018-09-02T01:18:30.700Z,96.40
2018-09-02T01:21:02.066Z,97.20
2018-09-02T01:23:33.096Z,97.70
2018-09-02T01:26:04.107Z,98.30
2018-09-02T01:28:35.479Z,99.20
2018-09-02T01:31:07.396Z,99.90
2018-09-02T01:33:38.668Z,99.90
2018-09-02T01:36:10.326Z,99.90
2018-09-02T01:38:41.402Z,99.90
2018-09-02T01:41:12.683Z,99.90
2018-09-02T01:43:44.268Z,99.90
2018-09-02T01:46:15.380Z,99.90
2018-09-02T01:48:46.360Z,99.90
2018-09-02T01:51:17.770Z,99.90
2018-09-02T01:53:48.759Z,99.90
2018-09-02T01:56:20.248Z,99.90
2018-09-02T01:58:52.510Z,99.90
2018-09-02T02:01:23.708Z,99.90
2018-09-02T02:03:54.823Z,99.90
2018-09-02T02:06:26.072Z,99.90
2018-09-02T02:08:57.395Z,99.90
2018-09-02T02:11:28.511Z,99.90
2018-09-02T02:13:59.839Z,99.90
2018-09-02T02:16:31.060Z,99.90
2018-09-02T02:19:02.255Z,99.90
2018-09-02T02:21:33.438Z,99.90
2018-09-02T02:24:04.622Z,99.90
2018-09-02T02:26:35.816Z,99.90
2018-09-02T02:29:07.283Z,99.90
2018-09-02T02:31:38.632Z,99.90
2018-09-02T02:34:09.777Z,99.90
2018-09-02T02:36:40.800Z,99.90
2018-09-02T02:39:12.814Z,99.90
2018-09-02T02:41:45.204Z,99.90
2018-09-02T02:44:16.515Z,99.90
2018-09-02T02:46:47.689Z,99.90
2018-09-02T02:49:18.955Z,99.90
2018-09-02T02:51:50.379Z,99.90
2018-09-02T02:54:21.702Z,99.90
2018-09-02T02:56:53.049Z,99.90
2018-09-02T02:59:24.040Z,99.90
2018-09-02T03:01:55.075Z,99.90
2018-09-02T03:04:26.063Z,99.90
2018-09-02T03:06:57.243Z,99.90
2018-09-02T03:09:28.360Z,99.90
2018-09-02T03:12:00.483Z,99.90
2018-09-02T03:14:31.805Z,99.90
2018-09-02T03:17:03.821Z,99.90
2018-09-02T03:19:34.988Z,99.90
2018-09-02T03:22:06.391Z,99.90
2018-09-02T03:24:37.726Z,99.90
2018-09-02T03:27:08.927Z,99.90
2018-09-02T03:29:40.171Z,99.90
2018-09-02T03:32:11.351Z,99.90
2018-09-02T03:34:42.695Z,99.90
2018-09-02T03:37:13.814Z,99.90
2018-09-02T03:39:44.951Z,99.90
2018-09-02T03:42:16.357Z,99.90
2018-09-02T03:44:47.808Z,99.90
2018-09-02T03:47:18.947Z,99.90
2018-09-02T03:49:50.079Z,99.90
2018-09-02T03:52:21.439Z,99.90
2018-09-02T03:54:52.425Z,99.90
2018-09-02T03:57:23.683Z,99.90
2018-09-02T03:59:55.163Z,99.90
2018-09-02T04:02:26.462Z,99.90
2018-09-02T04:04:57.620Z,99.90
2018-09-02T04:07:28.596Z,99.90
2018-09-02T04:09:59.806Z,99.90
2018-09-02T04:12:31.016Z,99.90
2018-09-02T04:15:02.387Z,99.90
2018-09-02T04:17:33.374Z,99.90
2018-09-02T04:20:04.931Z,99.90
2018-09-02T04:22:36.144Z,99.90
2018-09-02T04:25:07.372Z,99.90
2018-09-02T04:27:38.737Z,99.90
2018-09-02T04:30:10.047Z,99.90
2018-09-02T04:32:41.780Z,99.90
2018-09-02T04:35:13.124Z,99.90
2018-09-02T04:37:44.547Z,99.90
2018-09-02T04:40:15.842Z,99.90
2018-09-02T04:42:47.223Z,99.90
2018-09-02T04:45:18.707Z,99.90
2018-09-02T04:47:49.831Z,99.90
2018-09-02T04:50:21.697Z,99.90
2018-09-02T04:52:53.286Z,99.90
2018-09-02T04:55:24.390Z,99.90
2018-09-02T04:57:55.370Z,99.90
2018-09-02T05:00:26.698Z,99.90
2018-09-02T05:02:57.979Z,99.90
2018-09-02T05:05:28.957Z,99.90
2018-09-02T05:08:00.817Z,99.90
2018-09-02T05:10:32.118Z,99.90
2018-09-02T05:13:03.378Z,99.90
2018-09-02T05:15:34.712Z,99.90
2018-09-02T05:18:06.415Z,99.90
2018-09-02T05:20:37.685Z,99.90
2018-09-02T05:23:08.660Z,99.90
2018-09-02T05:25:40.046Z,99.90
2018-09-02T05:28:11.248Z,99.90
2018-09-02T05:30:42.599Z,99.90
2018-09-02T05:33:13.963Z,99.90
2018-09-02T05:35:45.039Z,99.90
2018-09-02T05:38:16.131Z,99.90
2018-09-02T05:40:47.391Z,99.90
2018-09-02T05:43:18.737Z,99.90
2018-09-02T05:45:49.837Z,99.90
2018-09-02T05:48:21.184Z,99.90
2018-09-02T05:50:52.159Z,99.90
2018-09-02T05:53:23.407Z,99.90
2018-09-02T05:55:54.567Z,99.90
2018-09-02T05:58:25.750Z,99.90
2018-09-02T06:00:57.045Z,99.90
2018-09-02T06:03:28.305Z,99.90
2018-09-02T06:05:59.639Z,99.90
2018-09-02T06:08:30.950Z,99.90
2018-09-02T06:11:02.610Z,99.90
2018-09-02T06:13:33.750Z,99.90
2018-09-02T06:16:05.143Z,99.90
2018-09-02T06:18:36.301Z,99.90
2018-09-02T06:21:07.639Z,99.90
2018-09-02T06:23:38.723Z,99.90
2018-09-02T06:26:10.049Z,99.90
2018-09-02T06:28:41.441Z,99.90
2018-09-02T06:31:13.095Z,99.90
2018-09-02T06:33:44.188Z,99.90
2018-09-02T06:36:15.486Z,99.90
2018-09-02T06:38:46.791Z,99.90
2018-09-02T06:41:17.860Z,99.90
2018-09-02T06:43:48.968Z,99.90
2018-09-02T06:46:20.223Z,99.90
2018-09-02T06:48:51.368Z,99.90
2018-09-02T06:51:22.820Z,99.90
2018-09-02T06:53:54.111Z,99.90
2018-09-02T06:56:25.111Z,99.90
2018-09-02T06:58:56.657Z,99.90
2018-09-02T07:01:27.888Z,99.90
2018-09-02T07:03:58.925Z,99.90
2018-09-02T07:06:30.430Z,99.90
2018-09-02T07:09:03.062Z,99.90
2018-09-02T07:11:34.818Z,99.90
2018-09-02T07:14:06.067Z,99.90
2018-09-02T07:16:37.231Z,99.90
2018-09-02T07:19:08.423Z,99.90
2018-09-02T07:21:39.408Z,99.90
2018-09-02T07:24:10.436Z,99.90
2018-09-02T07:26:41.795Z,99.90
2018-09-02T07:29:12.976Z,99.90
2018-09-02T07:31:44.382Z,99.90
2018-09-02T07:34:15.592Z,99.90
2018-09-02T07:36:47.606Z,99.90
2018-09-02T07:39:18.737Z,99.90
2018-09-02T07:41:50.111Z,99.90
2018-09-02T07:44:21.327Z,99.90
2018-09-02T07:46:52.518Z,99.90
2018-09-02T07:49:23.686Z,99.90
2018-09-02T07:51:54.867Z,99.90
2018-09-02T07:54:25.946Z,99.90
2018-09-02T07:56:57.255Z,99.90
2018-09-02T07:59:28.500Z,99.90
2018-09-02T08:01:59.656Z,99.90
2018-09-02T08:04:30.853Z,99.90
2018-09-02T08:07:02.376Z,99.90
2018-09-02T08:09:33.412Z,99.90
2018-09-02T08:12:04.678Z,99.90
2018-09-02T08:14:35.824Z,99.90
2018-09-02T08:17:07.450Z,99.90
2018-09-02T08:19:38.591Z,99.90
2018-09-02T08:22:09.743Z,99.90
2018-09-02T08:24:40.772Z,99.90
2018-09-02T08:27:11.970Z,99.90
2018-09-02T08:29:43.153Z,99.90
2018-09-02T08:32:14.163Z,99.90
2018-09-02T08:34:49.140Z,99.90
2018-09-02T08:37:20.594Z,99.90
2018-09-02T08:39:52.136Z,99.90
2018-09-02T08:42:23.241Z,99.90
2018-09-02T08:44:54.220Z,99.90
2018-09-02T08:47:25.461Z,99.90
2018-09-02T08:49:56.816Z,99.90
2018-09-02T08:52:28.002Z,99.90
2018-09-02T08:54:59.095Z,99.90
2018-09-02T08:57:30.463Z,98.00
2018-09-02T09:00:02.184Z,98.70
2018-09-02T09:02:33.346Z,99.20
2018-09-02T09:05:04.446Z,99.90
2018-09-02T09:07:35.719Z,98.00
2018-09-02T09:10:08.007Z,96.20
2018-09-02T09:12:39.576Z,97.90
2018-09-02T09:15:10.880Z,97.90
2018-09-02T09:17:42.107Z,97.40
2018-09-02T09:20:13.304Z,97.20
2018-09-02T09:22:44.595Z,96.70
2018-09-02T09:25:15.874Z,96.10
2018-09-02T09:27:47.248Z,95.90
2018-09-02T09:30:18.968Z,96.10
2018-09-02T09:32:50.483Z,94.10
2018-09-02T09:35:21.822Z,94.70
2018-09-02T09:37:52.953Z,92.90
2018-09-02T09:40:24.196Z,92.10
2018-09-02T09:42:55.565Z,92.80
2018-09-02T09:45:26.772Z,90.50
2018-09-02T09:47:58.520Z,90.50
2018-09-02T09:50:29.524Z,90.50
2018-09-02T09:53:00.545Z,89.90
2018-09-02T09:55:35.674Z,84.80
2018-09-02T09:58:07.127Z,86.50
2018-09-02T10:00:43.249Z,80.30
2018-09-02T10:03:14.712Z,76.50
2018-09-02T10:05:45.951Z,73.10
2018-09-02T10:08:17.201Z,76.50
2018-09-02T10:10:48.371Z,81.10
2018-09-02T10:13:19.517Z,79.60
2018-09-02T10:15:50.726Z,76.70
2018-09-02T10:18:21.903Z,77.50
2018-09-02T10:20:53.268Z,77.10
2018-09-02T10:23:24.672Z,73.30
2018-09-02T10:25:55.695Z,75.80
2018-09-02T10:28:27.111Z,72.50
2018-09-02T10:30:58.281Z,72.70
2018-09-02T10:33:29.675Z,73.60
2018-09-02T10:36:00.903Z,75.00
2018-09-02T10:38:32.392Z,73.80
2018-09-02T10:41:03.467Z,70.00
2018-09-02T10:43:34.803Z,67.30
2018-09-02T10:46:06.435Z,66.40
2018-09-02T10:48:38.053Z,67.20
2018-09-02T10:51:09.372Z,67.20
2018-09-02T10:53:40.795Z,65.10
2018-09-02T10:56:11.951Z,63.00
2018-09-02T10:58:43.132Z,59.40
2018-09-02T11:01:14.135Z,62.10
2018-09-02T11:03:45.123Z,58.70
2018-09-02T11:06:16.309Z,58.30
2018-09-02T11:08:47.434Z,56.70
2018-09-02T11:11:18.555Z,58.50
2018-09-02T11:13:50.114Z,53.30
2018-09-02T11:16:21.090Z,54.70
2018-09-02T11:18:52.268Z,56.50
2018-09-02T11:21:23.388Z,56.30
2018-09-02T11:23:54.634Z,55.90
2018-09-02T11:26:25.829Z,52.10
2018-09-02T11:28:57.027Z,55.40
2018-09-02T11:31:28.230Z,58.00
2018-09-02T11:33:59.285Z,57.20
2018-09-02T11:36:30.576Z,56.80
2018-09-02T11:39:02.415Z,57.60
2018-09-02T11:41:34.026Z,56.90
2018-09-02T11:44:05.415Z,55.70
2018-09-02T11:46:36.589Z,56.30
2018-09-02T11:49:08.035Z,55.40
2018-09-02T11:51:39.408Z,57.70
2018-09-02T11:54:10.707Z,53.80
2018-09-02T11:56:41.709Z,54.20
2018-09-02T11:59:12.909Z,53.10
2018-09-02T12:01:44.653Z,55.10
2018-09-02T12:04:15.881Z,56.10
2018-09-02T12:06:47.046Z,56.90
2018-09-02T12:09:18.516Z,56.20
2018-09-02T12:11:50.037Z,55.90
2018-09-02T12:14:21.035Z,54.90
2018-09-02T12:16:52.705Z,57.10
2018-09-02T12:19:24.056Z,55.40
2018-09-02T12:21:55.339Z,56.20
2018-09-02T12:24:26.587Z,55.20
2018-09-02T12:26:57.782Z,56.00
2018-09-02T12:29:28.775Z,56.50
2018-09-02T12:31:59.944Z,55.00
2018-09-02T12:34:31.165Z,54.30
2018-09-02T12:37:02.336Z,54.90
2018-09-02T12:39:33.619Z,55.00
2018-09-02T12:42:05.039Z,55.00
2018-09-02T12:44:36.611Z,55.90
2018-09-02T12:47:07.717Z,55.80
2018-09-02T12:49:39.478Z,53.00
2018-09-02T12:52:10.504Z,54.00
2018-09-02T12:54:42.120Z,53.90
2018-09-02T12:57:13.308Z,54.20
2018-09-02T12:59:45.063Z,54.40
2018-09-02T13:02:16.716Z,55.60
2018-09-02T13:04:47.992Z,55.00
2018-09-02T13:07:19.015Z,55.30
2018-09-02T13:09:50.214Z,54.30
2018-09-02T13:12:21.421Z,54.60
2018-09-02T13:14:53.155Z,53.30
2018-09-02T13:18:27.084Z,53.60
2018-09-02T13:20:58.335Z,52.50
2018-09-02T13:23:29.669Z,51.70
2018-09-02T13:26:01.133Z,52.90
2018-09-02T13:28:32.723Z,51.20
2018-09-02T13:31:04.495Z,52.20
2018-09-02T13:33:35.640Z,50.90
2018-09-02T13:36:06.847Z,51.60
2018-09-02T13:38:38.237Z,50.90
2018-09-02T13:41:09.587Z,50.70
2018-09-02T13:43:40.829Z,50.90
2018-09-02T13:46:12.019Z,51.10
2018-09-02T13:48:43.391Z,51.20
2018-09-02T13:51:14.759Z,49.80
2018-09-02T13:53:45.917Z,51.50
2018-09-02T13:56:17.129Z,49.70
2018-09-02T13:58:48.259Z,50.30
2018-09-02T14:01:20.463Z,48.60
2018-09-02T14:03:51.983Z,49.10
2018-09-02T14:06:23.306Z,50.10
2018-09-02T14:08:54.471Z,50.00
2018-09-02T14:11:25.462Z,48.10
2018-09-02T14:13:56.439Z,50.20
2018-09-02T14:16:27.452Z,49.60
2018-09-02T14:18:58.626Z,50.10
2018-09-02T14:21:29.823Z,50.40
2018-09-02T14:24:01.020Z,50.30
2018-09-02T14:26:32.286Z,50.20
2018-09-02T14:29:03.419Z,51.10
2018-09-02T14:31:34.455Z,51.50
2018-09-02T14:34:06.275Z,51.90
2018-09-02T14:36:37.577Z,51.10
2018-09-02T14:39:12.710Z,51.30
2018-09-02T14:41:44.009Z,51.90
2018-09-02T14:44:15.291Z,51.90
2018-09-02T14:46:46.642Z,51.30
2018-09-02T14:49:17.861Z,51.30
2018-09-02T14:51:49.032Z,51.30
2018-09-02T14:54:20.532Z,50.30
2018-09-02T14:56:51.706Z,48.60
2018-09-02T14:59:22.995Z,48.80
2018-09-02T15:01:54.235Z,48.00
2018-09-02T15:04:25.892Z,47.70
2018-09-02T15:07:01.106Z,48.20
2018-09-02T15:09:32.276Z,50.20
2018-09-02T15:12:03.507Z,49.30
2018-09-02T15:14:34.862Z,50.30
2018-09-02T15:17:06.064Z,50.80
2018-09-02T15:19:37.261Z,50.90
2018-09-02T15:22:08.465Z,50.90
2018-09-02T15:24:39.650Z,50.80
2018-09-02T15:27:10.703Z,50.20
2018-09-02T15:29:42.035Z,49.80
2018-09-02T15:32:13.548Z,50.00
2018-09-02T15:34:44.827Z,50.50
2018-09-02T15:37:16.036Z,50.60
2018-09-02T15:39:47.399Z,50.20
2018-09-02T15:42:18.436Z,51.50
2018-09-02T15:44:49.676Z,50.60
2018-09-02T15:47:20.763Z,50.80
2018-09-02T15:49:51.964Z,51.10
2018-09-02T15:52:23.515Z,51.60
2018-09-02T15:54:54.715Z,52.30
2018-09-02T15:57:26.009Z,51.60
2018-09-02T15:59:57.315Z,51.10
2018-09-02T16:02:28.814Z,50.60
2018-09-02T16:05:00.121Z,50.30
2018-09-02T16:07:32.472Z,49.30
2018-09-02T16:10:04.135Z,49.50
2018-09-02T16:12:35.480Z,49.60
2018-09-02T16:15:07.028Z,50.40
2018-09-02T16:17:38.223Z,48.60
2018-09-02T16:20:09.795Z,48.20
2018-09-02T16:22:40.828Z,49.00
2018-09-02T16:25:12.170Z,49.30
2018-09-02T16:27:43.368Z,50.90
2018-09-02T16:30:14.415Z,49.40
2018-09-02T16:32:45.918Z,49.90
2018-09-02T16:35:16.964Z,49.90
2018-09-02T16:37:48.146Z,51.00
2018-09-02T16:40:19.145Z,50.20
2018-09-02T16:42:50.499Z,51.90
2018-09-02T16:45:21.696Z,51.40
2018-09-02T16:47:52.889Z,51.70
2018-09-02T16:50:24.379Z,51.50
2018-09-02T16:52:55.771Z,51.20
2018-09-02T16:55:27.078Z,52.20
2018-09-02T16:57:58.063Z,51.60
2018-09-02T17:00:29.483Z,51.80
2018-09-02T17:03:00.831Z,52.00
2018-09-02T17:05:32.025Z,52.00
2018-09-02T17:08:03.208Z,52.20
2018-09-02T17:10:34.710Z,51.30
2018-09-02T17:13:06.116Z,52.40
2018-09-02T17:15:37.387Z,52.00
2018-09-02T17:18:08.554Z,53.60
2018-09-02T17:20:42.203Z,53.10
2018-09-02T17:23:14.591Z,51.50
2018-09-02T17:25:46.110Z,51.90
2018-09-02T17:28:17.271Z,52.20
2018-09-02T17:30:48.467Z,52.40
2018-09-02T17:33:19.968Z,52.40
2018-09-02T17:35:51.219Z,52.50
2018-09-02T17:38:22.306Z,53.10
2018-09-02T17:40:53.622Z,52.80
2018-09-02T17:43:24.861Z,53.60
2018-09-02T17:45:56.257Z,53.60
2018-09-02T17:48:27.420Z,54.30
2018-09-02T17:50:58.871Z,53.90
2018-09-02T17:53:30.167Z,54.50
2018-09-02T17:56:01.392Z,53.80
2018-09-02T17:58:33.051Z,54.70
2018-09-02T18:01:04.973Z,55.10
2018-09-02T18:03:36.143Z,55.20
2018-09-02T18:06:07.406Z,56.40
2018-09-02T18:08:38.804Z,56.00
2018-09-02T18:11:10.756Z,56.10
2018-09-02T18:13:42.127Z,55.80
2018-09-02T18:16:13.412Z,57.00
2018-09-02T18:18:44.885Z,56.50
2018-09-02T18:21:16.028Z,57.40
2018-09-02T18:23:47.256Z,57.40
2018-09-02T18:26:18.419Z,57.90
2018-09-02T18:28:51.017Z,59.00
2018-09-02T18:31:22.411Z,59.60
2018-09-02T18:33:53.739Z,58.90
2018-09-02T18:36:24.885Z,60.00
2018-09-02T18:38:56.131Z,59.40
2018-09-02T18:41:27.176Z,59.20
2018-09-02T18:43:58.767Z,59.60
2018-09-02T18:46:30.077Z,59.70
2018-09-02T18:49:01.326Z,60.80
2018-09-02T18:51:32.300Z,60.80
2018-09-02T18:54:03.491Z,61.80
2018-09-02T18:56:34.690Z,62.00
2018-09-02T18:59:06.888Z,62.30
2018-09-02T19:01:38.066Z,63.70
2018-09-02T19:04:09.253Z,63.10
2018-09-02T19:06:41.294Z,62.90
2018-09-02T19:09:12.425Z,62.60
2018-09-02T19:11:43.420Z,62.30
2018-09-02T19:14:14.709Z,62.10
2018-09-02T19:16:45.994Z,61.80
2018-09-02T19:19:17.009Z,63.20
2018-09-02T19:21:48.363Z,62.50
2018-09-02T19:24:19.590Z,63.00
2018-09-02T19:26:50.583Z,63.20
2018-09-02T19:29:21.888Z,63.60
2018-09-02T19:31:53.167Z,63.70
2018-09-02T19:34:24.360Z,64.10
2018-09-02T19:36:55.556Z,64.90
2018-09-02T19:39:26.955Z,65.50
2018-09-02T19:41:58.358Z,66.60
2018-09-02T19:44:29.706Z,67.10
2018-09-02T19:47:01.548Z,66.70
2018-09-02T19:49:32.873Z,66.80
2018-09-02T19:52:04.909Z,67.20
2018-09-02T19:54:36.705Z,67.60
2018-09-02T19:57:08.292Z,67.30
2018-09-02T19:59:39.437Z,68.40
2018-09-02T20:02:10.808Z,67.30
2018-09-02T20:04:41.992Z,67.20
2018-09-02T20:07:13.176Z,68.80
2018-09-02T20:09:44.323Z,68.80
2018-09-02T20:12:15.475Z,69.80
2018-09-02T20:14:46.813Z,70.60
2018-09-02T20:17:18.163Z,70.10
2018-09-02T20:19:49.512Z,69.90
2018-09-02T20:22:20.551Z,70.40
2018-09-02T20:24:51.694Z,70.80
2018-09-02T20:27:22.930Z,72.60
2018-09-02T20:29:54.103Z,72.30
2018-09-02T20:32:25.503Z,73.40
2018-09-02T20:34:56.678Z,72.90
2018-09-02T20:37:28.340Z,74.90
2018-09-02T20:39:59.650Z,74.20
2018-09-02T20:42:30.905Z,74.00
2018-09-02T20:45:02.663Z,74.60
2018-09-02T20:47:33.988Z,75.10
2018-09-02T20:50:05.302Z,75.00
2018-09-02T20:52:36.381Z,75.60
2018-09-02T20:55:07.679Z,75.80
2018-09-02T20:57:38.842Z,76.70
2018-09-02T21:00:10.072Z,77.80
2018-09-02T21:02:41.675Z,78.20
2018-09-02T21:05:13.091Z,78.50
2018-09-02T21:07:44.331Z,80.00
2018-09-02T21:10:15.987Z,79.70
2018-09-02T21:12:47.127Z,80.00
2018-09-02T21:15:18.519Z,80.00
2018-09-02T21:17:49.685Z,80.40
2018-09-02T21:20:20.875Z,81.10
2018-09-02T21:22:51.872Z,81.00
2018-09-02T21:25:23.083Z,81.60
2018-09-02T21:27:54.260Z,83.30
2018-09-02T21:30:25.456Z,81.90
2018-09-02T21:32:56.610Z,83.50
2018-09-02T21:35:27.800Z,83.10
2018-09-02T21:37:58.871Z,84.30
2018-09-02T21:40:30.016Z,83.50
2018-09-02T21:43:01.020Z,84.20
2018-09-02T21:45:32.403Z,84.90
2018-09-02T21:48:03.828Z,85.00
2018-09-02T21:50:35.269Z,84.40
2018-09-02T21:53:06.864Z,85.40
2018-09-02T21:55:38.162Z,86.90
2018-09-02T21:58:10.176Z,86.80
2018-09-02T22:00:42.460Z,87.10
2018-09-02T22:03:13.692Z,88.10
2018-09-02T22:05:45.366Z,88.40
2018-09-02T22:08:17.685Z,88.30
2018-09-02T22:10:49.046Z,88.60
2018-09-02T22:13:20.218Z,88.90
2018-09-02T22:15:51.564Z,89.60
2018-09-02T22:18:22.608Z,90.00
2018-09-02T22:20:53.811Z,90.40
2018-09-02T22:23:24.996Z,90.30
2018-09-02T22:25:56.438Z,90.50
2018-09-02T22:28:28.052Z,91.00
2018-09-02T22:30:59.364Z,91.40
2018-09-02T22:33:30.664Z,91.20
2018-09-02T22:36:01.943Z,91.40
2018-09-02T22:38:33.222Z,91.10
2018-09-02T22:41:04.455Z,91.60
2018-09-02T22:43:35.996Z,91.90
2018-09-02T22:46:07.343Z,90.90
2018-09-02T22:48:38.691Z,91.30
2018-09-02T22:51:09.883Z,91.40
2018-09-02T22:53:41.352Z,91.60
2018-09-02T22:56:12.449Z,91.80
2018-09-02T22:58:43.639Z,91.80
2018-09-02T23:01:14.793Z,92.10
2018-09-02T23:03:46.693Z,92.40
2018-09-02T23:06:18.015Z,93.10
2018-09-02T23:08:49.383Z,93.50
2018-09-02T23:11:20.384Z,93.60
2018-09-02T23:13:52.431Z,93.70
2018-09-02T23:16:23.795Z,93.70
2018-09-02T23:18:55.403Z,93.90
2018-09-02T23:21:26.734Z,93.90
2018-09-02T23:23:58.393Z,93.60
2018-09-02T23:26:29.947Z,93.50
2018-09-02T23:29:02.528Z,93.90
2018-09-02T23:31:33.847Z,94.50
2018-09-02T23:34:05.036Z,94.30
2018-09-02T23:36:36.079Z,94.30
2018-09-02T23:39:11.161Z,94.00
2018-09-02T23:41:42.241Z,94.30
2018-09-02T23:44:13.342Z,94.70
2018-09-02T23:46:44.401Z,94.70
2018-09-02T23:49:15.368Z,95.30
2018-09-02T23:51:46.986Z,95.60
2018-09-02T23:54:18.127Z,95.60
2018-09-02T23:56:49.274Z,96.00
2018-09-02T23:59:20.535Z,96.70
